createdAt,value
2018-11-05T00:01:08.053Z,97620.72
2018-11-05T00:03:38.679Z,97625.72
2018-11-05T00:06:09.396Z,97626.08
2018-11-05T00:08:39.715Z,97631.18
2018-11-05T00:11:25.827Z,97638.91
2018-11-05T00:13:56.546Z,97639.08
2018-11-05T00:16:27.231Z,97627.33
2018-11-05T00:18:58.816Z,97630.30
2018-11-05T00:21:29.563Z,97644.19
2018-11-05T00:24:00.453Z,97651.95
2018-11-05T00:26:32.084Z,97644.36
2018-11-05T00:29:03.536Z,97637.95
2018-11-05T00:31:34.253Z,97631.99
2018-11-05T00:34:05.747Z,97610.27
2018-11-05T00:36:37.597Z,97609.91
2018-11-05T00:39:11.401Z,97603.50
2018-11-05T00:41:42.852Z,97598.75
2018-11-05T00:44:13.743Z,97601.98
2018-11-05T00:46:44.515Z,97608.77
2018-11-05T00:49:15.131Z,97592.97
2018-11-05T00:51:45.727Z,97564.12
2018-11-05T00:54:16.349Z,97573.88
2018-11-05T00:56:47.024Z,97575.18
2018-11-05T00:59:17.753Z,97578.86
2018-11-05T01:01:48.752Z,97577.67
2018-11-05T01:04:19.429Z,97563.22
2018-11-05T01:06:50.119Z,97566.70
2018-11-05T01:09:20.799Z,97574.05
2018-11-05T01:11:53.590Z,97563.84
2018-11-05T01:14:24.633Z,97570.01
2018-11-05T01:16:56.765Z,97586.53
2018-11-05T01:19:28.786Z,97585.95
2018-11-05T01:21:59.361Z,97589.60
2018-11-05T01:24:30.155Z,97575.48
2018-11-05T01:27:00.754Z,97567.32
2018-11-05T01:29:31.392Z,97545.95
2018-11-05T01:32:02.094Z,97539.09
2018-11-05T01:34:32.752Z,97529.84
2018-11-05T01:37:03.476Z,97520.73
2018-11-05T01:39:34.275Z,97526.66
2018-11-05T01:42:05.437Z,97529.14
2018-11-05T01:44:36.837Z,97540.67
2018-11-05T01:47:13.733Z,97540.67
2018-11-05T01:49:45.104Z,97529.51
2018-11-05T01:52:18.229Z,97536.77
2018-11-05T01:54:51.287Z,97534.88
2018-11-05T01:57:22.042Z,97525.38
2018-11-05T01:59:52.639Z,97529.53
2018-11-05T02:02:23.629Z,97533.94
2018-11-05T02:04:55.663Z,97537.15
2018-11-05T02:07:26.659Z,97521.01
2018-11-05T02:09:57.480Z,97525.05
2018-11-05T02:12:29.573Z,97517.43
2018-11-05T02:15:00.204Z,97505.11
2018-11-05T02:17:30.960Z,97504.27
2018-11-05T02:20:02.024Z,97504.62
2018-11-05T02:22:32.823Z,97515.30
2018-11-05T02:25:03.690Z,97507.11
2018-11-05T02:27:34.280Z,97508.30
2018-11-05T02:30:07.754Z,97506.05
2018-11-05T02:32:38.716Z,97496.31
2018-11-05T02:35:11.215Z,97480.08
2018-11-05T02:37:42.847Z,97486.81
2018-11-05T02:40:17.831Z,97473.31
2018-11-05T02:42:49.064Z,97482.77
2018-11-05T02:45:20.706Z,97486.23
2018-11-05T02:47:52.312Z,97474.82
2018-11-05T02:50:23.372Z,97467.72
2018-11-05T02:52:55.133Z,97474.38
2018-11-05T02:55:27.180Z,97474.41
2018-11-05T02:57:58.440Z,97477.14
2018-11-05T03:00:29.945Z,97490.30
2018-11-05T03:03:00.892Z,97488.06
2018-11-05T03:05:32.588Z,97490.91
2018-11-05T03:08:03.967Z,97496.16
2018-11-05T03:10:34.575Z,97491.17
2018-11-05T03:13:06.028Z,97494.02
2018-11-05T03:15:36.627Z,97486.80
2018-11-05T03:18:07.392Z,97489.41
2018-11-05T03:20:37.993Z,97481.83
2018-11-05T03:23:20.815Z,97470.30
2018-11-05T03:25:51.560Z,97462.61
2018-11-05T03:28:22.208Z,97468.43
2018-11-05T03:30:52.993Z,97476.47
2018-11-05T03:33:23.798Z,97473.40
2018-11-05T03:35:54.401Z,97461.78
2018-11-05T03:38:25.212Z,97460.96
2018-11-05T03:40:55.991Z,97455.14
2018-11-05T03:43:26.563Z,97457.41
2018-11-05T03:45:57.355Z,97457.87
2018-11-05T03:48:28.052Z,97455.63
2018-11-05T03:50:58.750Z,97467.11
2018-11-05T03:53:29.611Z,97482.88
2018-11-05T03:56:00.500Z,97480.51
2018-11-05T03:58:32.318Z,97489.88
2018-11-05T04:01:02.996Z,97503.27
2018-11-05T04:03:33.810Z,97505.17
2018-11-05T04:06:04.705Z,97498.66
2018-11-05T04:08:35.588Z,97488.23
2018-11-05T04:11:06.745Z,97492.63
2018-11-05T04:13:37.254Z,97504.59
2018-11-05T04:16:08.198Z,97512.63
2018-11-05T04:18:39.379Z,97497.11
2018-11-05T04:21:10.587Z,97486.45
2018-11-05T04:23:41.711Z,97491.91
2018-11-05T04:26:13.873Z,97499.02
2018-11-05T04:28:44.967Z,97502.79
2018-11-05T04:31:15.622Z,97494.64
2018-11-05T04:33:46.332Z,97493.44
2018-11-05T04:36:17.010Z,97497.22
2018-11-05T04:38:47.856Z,97501.37
2018-11-05T04:41:19.064Z,97488.00
2018-11-05T04:43:50.040Z,97494.27
2018-11-05T04:46:21.464Z,97475.42
2018-11-05T04:48:52.315Z,97472.25
2018-11-05T04:51:23.131Z,97480.53
2018-11-05T04:53:53.788Z,97485.63
2018-11-05T04:56:24.644Z,97478.63
2018-11-05T04:58:55.306Z,97483.96
2018-11-05T05:01:25.912Z,97481.81
2018-11-05T05:03:56.593Z,97463.81
2018-11-05T05:06:27.251Z,97458.36
2018-11-05T05:08:57.861Z,97456.45
2018-11-05T05:11:28.694Z,97466.52
2018-11-05T05:13:59.544Z,97461.90
2018-11-05T05:16:30.141Z,97455.64
2018-11-05T05:19:00.979Z,97451.16
2018-11-05T05:21:31.636Z,97459.55
2018-11-05T05:24:02.613Z,97459.08
2018-11-05T05:26:33.490Z,97463.72
2018-11-05T05:29:05.023Z,97458.86
2018-11-05T05:31:35.906Z,97457.42
2018-11-05T05:34:07.412Z,97456.11
2018-11-05T05:36:38.263Z,97464.54
2018-11-05T05:39:10.587Z,97452.70
2018-11-05T05:41:41.289Z,97457.78
2018-11-05T05:44:12.001Z,97466.66
2018-11-05T05:46:42.600Z,97468.31
2018-11-05T05:49:13.694Z,97468.31
2018-11-05T05:51:44.431Z,97469.15
2018-11-05T05:54:15.055Z,97468.06
2018-11-05T05:56:45.798Z,97460.84
2018-11-05T05:59:16.740Z,97471.51
2018-11-05T06:01:50.072Z,97475.66
2018-11-05T06:04:20.851Z,97475.55
2018-11-05T06:06:52.322Z,97475.43
2018-11-05T06:09:23.584Z,97476.84
2018-11-05T06:11:54.192Z,97478.02
2018-11-05T06:14:25.135Z,97479.57
2018-11-05T06:16:55.897Z,97465.13
2018-11-05T06:19:27.100Z,97465.13
2018-11-05T06:21:58.367Z,97478.36
2018-11-05T06:24:28.914Z,97482.39
2018-11-05T06:27:00.051Z,97478.42
2018-11-05T06:29:32.203Z,97479.61
2018-11-05T06:32:05.220Z,97483.20
2018-11-05T06:34:36.791Z,97483.70
2018-11-05T06:37:08.728Z,97476.23
2018-11-05T06:39:39.440Z,97476.50
2018-11-05T06:42:10.266Z,97476.25
2018-11-05T06:44:41.855Z,97472.59
2018-11-05T06:47:12.991Z,97477.92
2018-11-05T06:49:43.660Z,97483.94
2018-11-05T06:52:14.427Z,97481.45
2018-11-05T06:54:45.228Z,97484.97
2018-11-05T06:57:15.885Z,97486.97
2018-11-05T06:59:46.613Z,97483.75
2018-11-05T07:02:17.261Z,97494.88
2018-11-05T07:04:49.083Z,97496.55
2018-11-05T07:07:19.759Z,97482.84
2018-11-05T07:09:50.391Z,97488.02
2018-11-05T07:12:21.141Z,97495.56
2018-11-05T07:14:51.744Z,97495.01
2018-11-05T07:17:22.437Z,97494.99
2018-11-05T07:19:53.133Z,97486.16
2018-11-05T07:22:23.959Z,97483.50
2018-11-05T07:24:54.467Z,97480.69
2018-11-05T07:27:25.089Z,97483.64
2018-11-05T07:29:55.908Z,97497.25
2018-11-05T07:32:26.640Z,97503.20
2018-11-05T07:34:57.269Z,97503.00
2018-11-05T07:37:30.888Z,97512.87
2018-11-05T07:40:02.456Z,97498.78
2018-11-05T07:42:33.548Z,97500.20
2018-11-05T07:45:05.596Z,97493.16
2018-11-05T07:47:36.776Z,97490.61
2018-11-05T07:50:10.478Z,97491.73
2018-11-05T07:52:41.833Z,97492.28
2018-11-05T07:55:14.435Z,97491.21
2018-11-05T07:57:46.320Z,97492.98
2018-11-05T08:00:22.964Z,97483.38
2018-11-05T08:02:55.027Z,97482.44
2018-11-05T08:05:26.536Z,97485.45
2018-11-05T08:07:57.152Z,97478.16
2018-11-05T08:10:28.667Z,97486.56
2018-11-05T08:12:59.460Z,97501.53
2018-11-05T08:15:30.135Z,97494.02
2018-11-05T08:18:00.827Z,97490.67
2018-11-05T08:20:31.431Z,97496.74
2018-11-05T08:23:02.240Z,97499.07
2018-11-05T08:25:32.958Z,97500.48
2018-11-05T08:28:04.085Z,97492.36
2018-11-05T08:30:34.812Z,97485.27
2018-11-05T08:33:06.095Z,97473.47
2018-11-05T08:35:36.747Z,97467.34
2018-11-05T08:38:09.252Z,97465.56
2018-11-05T08:40:40.057Z,97457.06
2018-11-05T08:43:10.732Z,97472.02
2018-11-05T08:45:41.992Z,97469.49
2018-11-05T08:48:12.779Z,97464.52
2018-11-05T08:50:43.906Z,97465.34
2018-11-05T08:53:14.796Z,97471.07
2018-11-05T08:55:45.507Z,97474.38
2018-11-05T08:58:16.282Z,97466.38
2018-11-05T09:00:52.168Z,97476.44
2018-11-05T09:03:23.083Z,97470.15
2018-11-05T09:05:53.705Z,97469.25
2018-11-05T09:08:24.328Z,97480.30
2018-11-05T09:10:55.910Z,97481.65
2018-11-05T09:13:27.137Z,97488.14
2018-11-05T09:15:57.916Z,97485.59
2018-11-05T09:18:28.929Z,97479.38
2018-11-05T09:20:59.542Z,97473.06
2018-11-05T09:23:30.372Z,97473.23
2018-11-05T09:26:01.085Z,97470.34
2018-11-05T09:28:31.675Z,97485.16
2018-11-05T09:31:02.455Z,97479.31
2018-11-05T09:33:33.989Z,97474.67
2018-11-05T09:36:04.872Z,97475.66
2018-11-05T09:38:35.597Z,97481.27
2018-11-05T09:41:08.026Z,97481.38
2018-11-05T09:43:39.185Z,97478.37
2018-11-05T09:46:10.029Z,97476.24
2018-11-05T09:48:41.045Z,97472.74
2018-11-05T09:51:11.692Z,97464.74
2018-11-05T09:53:42.835Z,97473.11
2018-11-05T09:56:13.461Z,97456.19
2018-11-05T09:58:45.033Z,97456.19
2018-11-05T10:01:15.757Z,97460.86
2018-11-05T10:03:53.065Z,97461.80
2018-11-05T10:06:25.503Z,97457.89
2018-11-05T10:08:56.334Z,97462.70
2018-11-05T10:11:28.387Z,97463.27
2018-11-05T10:13:59.136Z,97466.94
2018-11-05T10:16:30.095Z,97460.28
2018-11-05T10:19:00.933Z,97450.63
2018-11-05T10:21:31.820Z,97442.55
2018-11-05T10:24:02.672Z,97437.32
2018-11-05T10:26:33.409Z,97430.67
2018-11-05T10:29:04.130Z,97427.45
2018-11-05T10:31:37.896Z,97423.08
2018-11-05T10:34:12.731Z,97426.22
2018-11-05T10:36:43.404Z,97422.92
2018-11-05T10:39:14.805Z,97427.66
2018-11-05T10:41:46.570Z,97415.94
2018-11-05T10:44:17.313Z,97416.72
2018-11-05T10:46:48.080Z,97411.39
2018-11-05T10:49:21.836Z,97406.14
2018-11-05T10:51:52.566Z,97394.63
2018-11-05T10:54:27.307Z,97398.29
2018-11-05T10:56:58.019Z,97396.19
2018-11-05T10:59:29.210Z,97394.98
2018-11-05T11:02:05.095Z,97393.66
2018-11-05T11:04:37.565Z,97395.61
2018-11-05T11:07:09.644Z,97393.56
2018-11-05T11:09:43.141Z,97399.80
2018-11-05T11:12:13.823Z,97388.78
2018-11-05T11:14:44.497Z,97385.20
2018-11-05T11:17:15.467Z,97377.77
2018-11-05T11:19:46.133Z,97388.47
2018-11-05T11:22:17.228Z,97390.12
2018-11-05T11:24:47.986Z,97388.20
2018-11-05T11:27:21.031Z,97392.81
2018-11-05T11:32:32.795Z,97386.27
2018-11-05T11:35:04.286Z,97378.89
2018-11-05T11:37:34.922Z,97377.69
2018-11-05T11:40:09.254Z,97374.51
2018-11-05T11:42:40.811Z,97372.06
2018-11-05T11:45:13.744Z,97362.64
2018-11-05T11:47:44.699Z,97366.72
2018-11-05T11:50:16.498Z,97368.03
2018-11-05T11:52:48.904Z,97358.51
2018-11-05T11:55:22.170Z,97351.27
2018-11-05T11:57:52.870Z,97349.29
2018-11-05T12:00:25.109Z,97348.66
2018-11-05T12:02:56.017Z,97351.79
2018-11-05T12:05:26.955Z,97345.39
2018-11-05T12:07:57.620Z,97339.98
2018-11-05T12:10:28.221Z,97339.17
2018-11-05T12:12:58.810Z,97342.64
2018-11-05T12:15:31.556Z,97338.22
2018-11-05T12:18:02.283Z,97341.49
2018-11-05T12:20:33.208Z,97339.22
2018-11-05T12:23:04.351Z,97335.95
2018-11-05T12:25:35.008Z,97335.32
2018-11-05T12:28:06.458Z,97336.46
2018-11-05T12:30:37.308Z,97334.00
2018-11-05T12:33:08.788Z,97332.02
2018-11-05T12:35:39.474Z,97328.41
2018-11-05T12:38:10.245Z,97329.70
2018-11-05T12:40:41.058Z,97330.38
2018-11-05T12:43:11.701Z,97321.48
2018-11-05T12:45:42.507Z,97326.42
2018-11-05T12:48:13.276Z,97324.62
2018-11-05T12:50:44.364Z,97312.73
2018-11-05T12:53:15.511Z,97305.69
2018-11-05T12:55:48.162Z,97303.03
2018-11-05T12:58:23.333Z,97307.33
2018-11-05T13:00:54.215Z,97305.69
2018-11-05T13:03:24.698Z,97305.52
2018-11-05T13:05:55.459Z,97300.23
2018-11-05T13:08:29.560Z,97295.29
2018-11-05T13:11:00.415Z,97287.87
2018-11-05T13:13:31.028Z,97285.23
2018-11-05T13:16:01.859Z,97282.42
2018-11-05T13:18:35.766Z,97277.33
2018-11-05T13:21:06.667Z,97270.42
2018-11-05T13:23:43.549Z,97262.68
2018-11-05T13:26:15.377Z,97263.35
2018-11-05T13:28:46.193Z,97267.78
2018-11-05T13:31:17.436Z,97272.72
2018-11-05T13:33:48.944Z,97265.30
2018-11-05T13:36:21.103Z,97264.02
2018-11-05T13:38:51.893Z,97259.75
2018-11-05T13:41:23.643Z,97257.25
2018-11-05T13:43:54.384Z,97259.06
2018-11-05T13:46:25.421Z,97262.83
2018-11-05T13:48:58.749Z,97262.50
2018-11-05T13:51:31.165Z,97265.78
2018-11-05T13:54:01.835Z,97263.14
2018-11-05T13:56:32.769Z,97259.53
2018-11-05T13:59:03.621Z,97256.89
2018-11-05T14:01:34.448Z,97261.66
2018-11-05T14:04:07.121Z,97264.13
2018-11-05T14:06:37.784Z,97259.70
2018-11-05T14:09:09.919Z,97256.22
2018-11-05T14:11:43.950Z,97260.84
2018-11-05T14:14:15.297Z,97261.52
2018-11-05T14:16:47.510Z,97263.65
2018-11-05T14:19:18.213Z,97255.27
2018-11-05T14:21:49.192Z,97265.97
2018-11-05T14:24:21.653Z,97267.80
2018-11-05T14:26:54.076Z,97259.55
2018-11-05T14:29:27.747Z,97260.39
2018-11-05T14:31:58.400Z,97264.52
2018-11-05T14:34:29.343Z,97257.41
2018-11-05T14:37:00.186Z,97259.55
2018-11-05T14:39:36.812Z,97263.50
2018-11-05T14:42:07.831Z,97269.78
2018-11-05T14:44:38.488Z,97271.60
2018-11-05T14:47:09.129Z,97274.06
2018-11-05T14:49:40.151Z,97276.53
2018-11-05T14:52:10.895Z,97277.54
2018-11-05T14:54:42.033Z,97276.39
2018-11-05T14:57:12.661Z,97277.70
2018-11-05T14:59:43.452Z,97276.70
2018-11-05T15:02:19.498Z,97275.72
2018-11-05T15:04:52.890Z,97273.25
2018-11-05T15:07:24.675Z,97277.00
2018-11-05T15:09:58.332Z,97275.67
2018-11-05T15:12:29.544Z,97270.09
2018-11-05T15:15:00.220Z,97268.46
2018-11-05T15:17:30.893Z,97268.78
2018-11-05T15:20:02.235Z,97270.09
2018-11-05T15:22:32.500Z,97263.83
2018-11-05T15:25:06.989Z,97274.05
2018-11-05T15:27:38.491Z,97273.39
2018-11-05T15:30:15.057Z,97278.31
2018-11-05T15:32:46.281Z,97273.37
2018-11-05T15:35:17.547Z,97269.38
2018-11-05T15:37:50.742Z,97264.45
2018-11-05T15:40:22.560Z,97258.17
2018-11-05T15:42:54.439Z,97259.78
2018-11-05T15:45:25.698Z,97260.11
2018-11-05T15:47:57.002Z,97269.31
2018-11-05T15:50:27.664Z,97273.20
2018-11-05T15:53:07.808Z,97272.18
2018-11-05T15:55:38.451Z,97270.00
2018-11-05T15:58:09.108Z,97263.39
2018-11-05T16:00:40.206Z,97279.96
2018-11-05T16:03:10.842Z,97283.03
2018-11-05T16:05:41.572Z,97283.49
2018-11-05T16:08:12.412Z,97291.97
2018-11-05T16:10:43.179Z,97291.27
2018-11-05T16:13:13.852Z,97285.46
2018-11-05T16:15:45.160Z,97280.78
2018-11-05T16:18:15.973Z,97276.64
2018-11-05T16:20:46.772Z,97285.13
2018-11-05T16:23:17.408Z,97286.01
2018-11-05T16:25:48.076Z,97289.89
2018-11-05T16:28:18.940Z,97302.47
2018-11-05T16:30:49.712Z,97294.34
2018-11-05T16:33:20.487Z,97298.06
2018-11-05T16:35:51.387Z,97296.86
2018-11-05T16:38:22.151Z,97305.38
2018-11-05T16:40:52.966Z,97302.39
2018-11-05T16:43:25.274Z,97304.44
2018-11-05T16:45:56.845Z,97311.59
2018-11-05T16:48:27.649Z,97314.81
2018-11-05T16:51:00.215Z,97314.59
2018-11-05T16:53:31.385Z,97311.56
2018-11-05T16:56:03.101Z,97313.66
2018-11-05T16:58:33.856Z,97314.45
2018-11-05T17:01:04.682Z,97322.12
2018-11-05T17:03:37.267Z,97318.97
2018-11-05T17:06:07.868Z,97315.33
2018-11-05T17:08:39.132Z,97315.38
2018-11-05T17:11:09.748Z,97317.50
2018-11-05T17:13:40.603Z,97315.53
2018-11-05T17:16:11.308Z,97310.31
2018-11-05T17:18:42.068Z,97315.52
2018-11-05T17:21:12.796Z,97320.77
2018-11-05T17:23:43.432Z,97314.07
2018-11-05T17:26:14.060Z,97320.63
2018-11-05T17:28:44.876Z,97320.59
2018-11-05T17:31:15.528Z,97317.86
2018-11-05T17:33:46.024Z,97317.58
2018-11-05T17:36:16.792Z,97318.85
2018-11-05T17:38:47.404Z,97320.23
2018-11-05T17:41:18.186Z,97326.52
2018-11-05T17:43:48.962Z,97328.44
2018-11-05T17:46:19.818Z,97333.91
2018-11-05T17:48:50.536Z,97335.42
2018-11-05T17:51:21.170Z,97339.23
2018-11-05T17:53:51.595Z,97339.78
2018-11-05T17:56:22.262Z,97337.71
2018-11-05T17:58:52.888Z,97342.33
2018-11-05T18:01:23.627Z,97340.39
2018-11-05T18:03:54.581Z,97338.86
2018-11-05T18:06:25.580Z,97342.48
2018-11-05T18:08:56.605Z,97345.87
2018-11-05T18:11:30.339Z,97355.30
2018-11-05T18:14:02.696Z,97357.02
2018-11-05T18:16:33.542Z,97358.59
2018-11-05T18:19:04.652Z,97357.41
2018-11-05T18:21:35.309Z,97361.25
2018-11-05T18:24:09.609Z,97352.04
2018-11-05T18:26:42.829Z,97356.23
2018-11-05T18:29:14.105Z,97352.44
2018-11-05T18:31:45.006Z,97353.93
2018-11-05T18:34:15.635Z,97358.12
2018-11-05T18:36:46.265Z,97360.09
2018-11-05T18:39:17.078Z,97365.17
2018-11-05T18:41:47.927Z,97367.50
2018-11-05T18:44:18.770Z,97365.18
2018-11-05T18:46:49.531Z,97366.39
2018-11-05T18:49:20.345Z,97361.09
2018-11-05T18:51:52.089Z,97366.23
2018-11-05T18:54:22.845Z,97366.63
2018-11-05T18:56:54.727Z,97361.39
2018-11-05T18:59:25.496Z,97368.81
2018-11-05T19:01:56.586Z,97370.38
2018-11-05T19:04:27.261Z,97372.63
2018-11-05T19:06:58.020Z,97368.15
2018-11-05T19:09:28.843Z,97370.89
2018-11-05T19:11:59.877Z,97372.59
2018-11-05T19:14:33.797Z,97375.95
2018-11-05T19:17:04.457Z,97375.16
2018-11-05T19:19:35.243Z,97372.23
2018-11-05T19:22:06.526Z,97375.44
2018-11-05T19:24:37.483Z,97380.22
2018-11-05T19:27:08.185Z,97384.40
2018-11-05T19:29:39.986Z,97384.66
2018-11-05T19:32:10.752Z,97384.64
2018-11-05T19:34:41.440Z,97385.38
2018-11-05T19:37:12.454Z,97381.03
2018-11-05T19:39:43.386Z,97387.08
2018-11-05T19:42:14.718Z,97389.84
2018-11-05T19:44:48.253Z,97394.72
2018-11-05T19:47:19.076Z,97393.21
2018-11-05T19:49:51.133Z,97402.59
2018-11-05T19:52:23.533Z,97400.23
2018-11-05T19:54:54.450Z,97400.81
2018-11-05T19:57:25.288Z,97397.88
2018-11-05T19:59:56.026Z,97397.88
2018-11-05T20:02:29.647Z,97394.95
2018-11-05T20:05:00.536Z,97401.11
2018-11-05T20:07:31.199Z,97402.30
2018-11-05T20:10:01.916Z,97402.09
2018-11-05T20:12:32.911Z,97406.74
2018-11-05T20:15:03.725Z,97399.41
2018-11-05T20:17:35.135Z,97401.04
2018-11-05T20:20:08.284Z,97403.32
2018-11-05T20:22:39.375Z,97399.78
2018-11-05T20:25:10.571Z,97410.20
2018-11-05T20:27:42.067Z,97403.33
2018-11-05T20:30:17.541Z,97398.14
2018-11-05T20:32:49.419Z,97401.20
2018-11-05T20:35:20.006Z,97400.88
2018-11-05T20:37:51.830Z,97401.93
2018-11-05T20:40:23.100Z,97400.66
2018-11-05T20:42:55.122Z,97396.50
2018-11-05T20:45:28.290Z,97397.59
2018-11-05T20:47:59.500Z,97397.95
2018-11-05T20:50:30.366Z,97398.77
2018-11-05T20:53:01.720Z,97400.80
2018-11-05T20:55:33.787Z,97405.77
2018-11-05T20:58:04.472Z,97402.59
2018-11-05T21:00:35.140Z,97402.34
2018-11-05T21:03:05.930Z,97399.97
2018-11-05T21:05:36.606Z,97394.19
2018-11-05T21:08:07.358Z,97394.87
2018-11-05T21:10:38.149Z,97400.33
2018-11-05T21:13:09.075Z,97395.84
2018-11-05T21:15:39.824Z,97398.56
2018-11-05T21:18:10.516Z,97398.20
2018-11-05T21:20:41.046Z,97398.44
2018-11-05T21:23:11.885Z,97399.64
2018-11-05T21:25:42.889Z,97407.91
2018-11-05T21:28:13.591Z,97402.00
2018-11-05T21:30:44.209Z,97402.13
2018-11-05T21:33:14.839Z,97395.73
2018-11-05T21:35:45.708Z,97397.38
2018-11-05T21:38:16.287Z,97401.59
2018-11-05T21:40:47.217Z,97402.31
2018-11-05T21:43:18.099Z,97401.27
2018-11-05T21:45:52.203Z,97398.16
2018-11-05T21:48:22.791Z,97400.76
2018-11-05T21:50:53.864Z,97396.52
2018-11-05T21:53:24.477Z,97397.09
2018-11-05T21:55:55.444Z,97398.98
2018-11-05T21:58:26.271Z,97401.34
2018-11-05T22:00:57.005Z,97400.76
2018-11-05T22:03:27.830Z,97399.92
2018-11-05T22:05:58.782Z,97399.45
2018-11-05T22:08:29.495Z,97395.91
2018-11-05T22:11:00.236Z,97400.05
2018-11-05T22:13:31.887Z,97400.84
2018-11-05T22:16:02.820Z,97393.95
2018-11-05T22:18:33.462Z,97389.80
2018-11-05T22:21:04.470Z,97394.53
2018-11-05T22:23:35.296Z,97393.09
2018-11-05T22:26:06.398Z,97388.25
2018-11-05T22:28:37.132Z,97387.30
2018-11-05T22:31:08.492Z,97384.66
2018-11-05T22:33:39.948Z,97396.14
2018-11-05T22:36:10.745Z,97386.45
2018-11-05T22:38:41.580Z,97385.48
2018-11-05T22:41:13.025Z,97382.06
2018-11-05T22:43:43.963Z,97393.52
2018-11-05T22:46:15.096Z,97388.76
2018-11-05T22:48:46.371Z,97391.58
2018-11-05T22:51:17.862Z,97388.39
2018-11-05T22:53:51.047Z,97391.47
2018-11-05T22:56:21.913Z,97387.57
2018-11-05T22:58:52.583Z,97392.52
2018-11-05T23:01:28.742Z,97390.02
2018-11-05T23:04:02.719Z,97383.52
2018-11-05T23:06:34.143Z,97387.69
2018-11-05T23:09:06.209Z,97387.31
2018-11-05T23:11:37.540Z,97390.39
2018-11-05T23:14:08.236Z,97386.34
2018-11-05T23:16:39.051Z,97396.04
2018-11-05T23:19:09.737Z,97391.40
2018-11-05T23:21:40.313Z,97389.39
2018-11-05T23:24:10.962Z,97391.73
2018-11-05T23:26:42.705Z,97388.42
2018-11-05T23:29:13.356Z,97391.84
2018-11-05T23:31:43.971Z,97396.70
2018-11-05T23:34:14.694Z,97393.84
2018-11-05T23:36:45.483Z,97389.95
2018-11-05T23:39:16.196Z,97386.64
2018-11-05T23:41:46.896Z,97386.05
2018-11-05T23:44:17.766Z,97383.30
2018-11-05T23:46:48.564Z,97382.22
2018-11-05T23:49:19.211Z,97384.06
2018-11-05T23:51:50.216Z,97376.75
2018-11-05T23:54:21.183Z,97370.11
2018-11-05T23:56:51.764Z,97376.16
2018-11-05T23:59:22.555Z,97377.67
